Time;durP1;ratioP1;P1;durP2;ratioP2;P2;SDS_P1;SDS_P2;PMS_P1;PMS_P2;Temp;Humidity;BMP_temperature;BMP_pressure;BME280_temperature;BME280_humidity;BME280_pressure;Samples;Min_cycle;Max_cycle;Signal;HPM_P1;HPM_P2
2021/03/19 00:00:12;;;;;;;67.83;41.00;;;;;;;;;;4335932;33;20296;-68
2021/03/19 00:02:38;;;;;;;77.90;44.13;;;;;;;;;;4320514;33;20223;-68
2021/03/19 00:05:11;;;;;;;74.20;44.17;;;;;;;;;;4309636;33;20285;-64
2021/03/19 00:07:57;;;;;;;65.20;37.50;;;;;;;;;;4304355;33;20232;-68
2021/03/19 00:10:28;;;;;;;60.20;32.70;;;;;;;;;;4325256;33;20672;-66
2021/03/19 00:12:56;;;;;;;56.70;32.73;;;;;;;;;;4320468;33;20250;-67
2021/03/19 00:15:28;;;;;;;61.77;34.97;;;;;;;;;;4323274;33;20214;-60
2021/03/19 00:17:54;;;;;;;50.20;32.73;;;;;;;;;;4315462;33;20216;-62
2021/03/19 00:20:20;;;;;;;52.30;32.03;;;;;;;;;;4313490;33;20239;-60
2021/03/19 00:22:46;;;;;;;58.93;33.60;;;;;;;;;;4318663;33;20247;-60
2021/03/19 00:25:13;;;;;;;53.23;31.47;;;;;;;;;;4326740;33;20557;-61
2021/03/19 00:27:38;;;;;;;49.10;29.63;;;;;;;;;;4310381;33;20246;-60
2021/03/19 00:30:07;;;;;;;35.40;23.93;;;;;;;;;;4330229;33;20223;-61
2021/03/19 00:32:32;;;;;;;32.73;20.90;;;;;;;;;;4321119;33;20678;-61
2021/03/19 00:34:58;;;;;;;37.80;26.23;;;;;;;;;;4314329;33;20322;-60
2021/03/19 00:37:23;;;;;;;35.47;23.67;;;;;;;;;;4326304;33;20372;-60
2021/03/19 00:39:49;;;;;;;34.17;23.30;;;;;;;;;;4310651;33;20814;-61
2021/03/19 00:42:14;;;;;;;33.80;21.87;;;;;;;;;;4325776;33;20648;-59
2021/03/19 00:44:41;;;;;;;27.90;19.37;;;;;;;;;;4322763;33;20290;-59
2021/03/19 00:47:07;;;;;;;27.77;20.90;;;;;;;;;;4325434;33;20216;-60
2021/03/19 00:49:33;;;;;;;31.03;21.27;;;;;;;;;;4322968;33;20724;-59
2021/03/19 00:51:59;;;;;;;32.50;22.53;;;;;;;;;;4325871;33;20397;-61
2021/03/19 00:54:25;;;;;;;37.83;24.60;;;;;;;;;;4322575;33;20282;-59
2021/03/19 00:56:50;;;;;;;33.43;22.27;;;;;;;;;;4324268;33;20290;-59
2021/03/19 00:59:16;;;;;;;33.97;23.10;;;;;;;;;;4324639;33;20361;-60
2021/03/19 01:01:41;;;;;;;34.97;23.07;;;;;;;;;;4314272;33;20814;-58
2021/03/19 01:04:07;;;;;;;37.00;23.80;;;;;;;;;;4323375;33;20304;-59
2021/03/19 01:06:32;;;;;;;31.57;21.93;;;;;;;;;;4317475;33;20227;-59
2021/03/19 01:08:59;;;;;;;32.73;20.63;;;;;;;;;;4316584;33;20286;-61
2021/03/19 01:11:27;;;;;;;35.23;22.00;;;;;;;;;;4313604;33;20370;-60
2021/03/19 01:13:53;;;;;;;26.53;19.20;;;;;;;;;;4315086;33;20223;-59
2021/03/19 01:16:20;;;;;;;24.93;17.50;;;;;;;;;;4314765;33;20224;-60
2021/03/19 01:18:45;;;;;;;21.23;15.57;;;;;;;;;;4314604;33;20231;-59
2021/03/19 01:21:11;;;;;;;24.13;17.43;;;;;;;;;;4314639;33;20594;-61
2021/03/19 01:23:36;;;;;;;21.47;16.50;;;;;;;;;;4314997;33;20286;-61
2021/03/19 01:26:02;;;;;;;22.13;16.47;;;;;;;;;;4316697;33;20417;-61
2021/03/19 01:28:28;;;;;;;19.13;14.17;;;;;;;;;;4315795;33;20437;-60
2021/03/19 01:30:54;;;;;;;20.63;15.87;;;;;;;;;;4316907;33;20591;-60
2021/03/19 01:33:19;;;;;;;22.70;17.47;;;;;;;;;;4314893;33;20258;-62
2021/03/19 01:35:45;;;;;;;20.13;16.37;;;;;;;;;;4313317;33;20254;-63
2021/03/19 01:38:12;;;;;;;23.50;16.60;;;;;;;;;;4313977;33;20228;-60
2021/03/19 01:40:44;;;;;;;24.13;17.17;;;;;;;;;;4319637;33;20648;-59
2021/03/19 01:43:16;;;;;;;27.57;19.27;;;;;;;;;;4314994;33;20249;-59
2021/03/19 01:46:18;;;;;;;24.83;19.70;;;;;;;;;;4312644;33;20575;-60
2021/03/19 01:49:22;;;;;;;24.67;18.10;;;;;;;;;;4314050;33;20295;-63
2021/03/19 01:52:25;;;;;;;29.57;18.80;;;;;;;;;;4312947;33;20282;-62
2021/03/19 01:55:28;;;;;;;28.17;19.83;;;;;;;;;;4314411;33;20346;-60
2021/03/19 01:58:31;;;;;;;30.93;20.27;;;;;;;;;;4313755;33;20227;-60
2021/03/19 02:01:34;;;;;;;34.83;22.47;;;;;;;;;;4310429;33;20215;-63
2021/03/19 02:04:37;;;;;;;34.03;21.83;;;;;;;;;;4305057;33;20291;-62
2021/03/19 02:07:40;;;;;;;29.57;22.73;;;;;;;;;;4319269;33;20621;-62
2021/03/19 02:10:43;;;;;;;36.50;27.43;;;;;;;;;;4322279;33;20257;-63
2021/03/19 02:13:46;;;;;;;35.27;25.83;;;;;;;;;;4324952;33;20246;-63
2021/03/19 02:16:49;;;;;;;31.77;23.27;;;;;;;;;;4327944;33;20297;-63
2021/03/19 02:19:51;;;;;;;31.53;22.50;;;;;;;;;;4328254;33;20324;-63
2021/03/19 02:22:55;;;;;;;45.07;31.57;;;;;;;;;;4325183;33;20657;-63
2021/03/19 02:25:58;;;;;;;42.97;31.90;;;;;;;;;;4320908;33;20210;-63
2021/03/19 02:29:02;;;;;;;47.10;31.50;;;;;;;;;;4323106;33;20266;-63
2021/03/19 02:31:54;;;;;;;41.83;31.10;;;;;;;;;;4334246;33;20416;-63
2021/03/19 02:34:22;;;;;;;54.87;34.10;;;;;;;;;;4339815;33;20210;-62
2021/03/19 02:36:48;;;;;;;51.80;31.80;;;;;;;;;;4336358;33;20610;-64
2021/03/19 02:39:14;;;;;;;54.67;30.27;;;;;;;;;;4323887;33;20692;-63
2021/03/19 02:41:39;;;;;;;58.37;31.03;;;;;;;;;;4337911;33;20218;-64
2021/03/19 02:44:05;;;;;;;37.77;25.33;;;;;;;;;;4326647;33;20297;-62
2021/03/19 02:46:30;;;;;;;38.40;25.17;;;;;;;;;;4316917;33;20247;-64
2021/03/19 02:48:56;;;;;;;44.50;27.50;;;;;;;;;;4325784;33;20207;-63
2021/03/19 02:51:22;;;;;;;41.00;25.50;;;;;;;;;;4316358;33;20600;-63
2021/03/19 02:53:47;;;;;;;45.47;28.90;;;;;;;;;;4328164;33;20336;-63
2021/03/19 02:56:13;;;;;;;48.20;29.50;;;;;;;;;;4333005;33;20371;-63
2021/03/19 02:58:38;;;;;;;44.57;28.90;;;;;;;;;;4319228;33;20641;-63
2021/03/19 03:01:05;;;;;;;52.20;29.83;;;;;;;;;;4337648;33;20387;-63
2021/03/19 03:03:32;;;;;;;46.93;31.20;;;;;;;;;;4329245;33;20210;-61
2021/03/19 03:05:58;;;;;;;50.67;33.77;;;;;;;;;;4327780;33;20223;-62
2021/03/19 03:08:23;;;;;;;48.67;32.27;;;;;;;;;;4319816;33;20265;-61
2021/03/19 03:10:51;;;;;;;61.37;34.77;;;;;;;;;;4326030;33;20377;-58
2021/03/19 03:13:18;;;;;;;53.97;33.90;;;;;;;;;;4322243;33;20317;-58
2021/03/19 03:15:44;;;;;;;59.77;36.67;;;;;;;;;;4324783;33;20659;-58
2021/03/19 03:18:11;;;;;;;62.27;36.73;;;;;;;;;;4302791;33;20231;-58
2021/03/19 03:20:48;;;;;;;57.87;38.60;;;;;;;;;;4312667;33;20269;-57
2021/03/19 03:23:15;;;;;;;59.87;39.87;;;;;;;;;;4322013;33;20281;-59
2021/03/19 03:25:41;;;;;;;48.60;29.33;;;;;;;;;;4326066;33;20261;-59
2021/03/19 03:28:08;;;;;;;36.57;25.70;;;;;;;;;;4315729;33;20605;-59
2021/03/19 03:30:38;;;;;;;33.27;22.30;;;;;;;;;;4321784;33;20265;-59
2021/03/19 03:33:05;;;;;;;33.40;22.93;;;;;;;;;;4321573;33;20858;-59
2021/03/19 03:35:32;;;;;;;34.27;22.53;;;;;;;;;;4326551;33;20235;-59
2021/03/19 03:37:59;;;;;;;27.33;20.53;;;;;;;;;;4321965;33;20227;-58
2021/03/19 03:40:36;;;;;;;30.83;20.87;;;;;;;;;;4308088;33;20290;-58
2021/03/19 03:43:02;;;;;;;27.93;20.77;;;;;;;;;;4320293;33;20298;-58
2021/03/19 03:45:28;;;;;;;23.03;18.53;;;;;;;;;;4325011;33;20249;-58
2021/03/19 03:47:53;;;;;;;25.30;19.67;;;;;;;;;;4321460;33;20279;-60
2021/03/19 03:50:22;;;;;;;29.23;18.70;;;;;;;;;;4317545;33;20652;-60
2021/03/19 03:52:48;;;;;;;29.63;20.13;;;;;;;;;;4321063;33;20297;-60
2021/03/19 03:55:14;;;;;;;30.93;21.10;;;;;;;;;;4318559;33;20219;-60
2021/03/19 03:57:40;;;;;;;32.13;23.07;;;;;;;;;;4318187;33;20305;-60
2021/03/19 04:00:11;;;;;;;30.50;22.47;;;;;;;;;;4322561;33;20282;-60
2021/03/19 04:02:37;;;;;;;47.33;28.53;;;;;;;;;;4321840;33;20219;-60
2021/03/19 04:05:05;;;;;;;48.47;30.97;;;;;;;;;;4328376;33;20465;-60
2021/03/19 04:07:31;;;;;;;48.87;33.80;;;;;;;;;;4330466;33;20320;-61
2021/03/19 04:09:56;;;;;;;43.73;28.60;;;;;;;;;;4333210;33;20219;-60
2021/03/19 04:12:22;;;;;;;46.13;28.23;;;;;;;;;;4331271;33;20310;-61
2021/03/19 04:14:47;;;;;;;41.07;27.50;;;;;;;;;;4327388;33;20616;-62
2021/03/19 04:17:33;;;;;;;49.53;31.70;;;;;;;;;;4327238;33;20270;-62
2021/03/19 04:20:00;;;;;;;38.47;28.63;;;;;;;;;;4326705;33;20261;-67
2021/03/19 04:22:27;;;;;;;40.83;30.23;;;;;;;;;;4318405;33;20306;-65
2021/03/19 04:24:55;;;;;;;42.80;31.13;;;;;;;;;;4333582;33;20367;-64
2021/03/19 04:27:23;;;;;;;47.33;32.73;;;;;;;;;;4333325;33;20223;-65
2021/03/19 04:29:49;;;;;;;40.57;30.57;;;;;;;;;;4331279;33;20333;-66
2021/03/19 04:32:15;;;;;;;53.83;34.83;;;;;;;;;;4315581;33;20235;-65
2021/03/19 04:34:41;;;;;;;53.83;33.73;;;;;;;;;;4331139;33;20293;-62
2021/03/19 04:37:08;;;;;;;46.40;32.53;;;;;;;;;;4330142;33;20341;-62
2021/03/19 04:39:38;;;;;;;47.67;32.90;;;;;;;;;;4318390;33;20207;-61
2021/03/19 04:42:06;;;;;;;48.50;31.13;;;;;;;;;;4321609;33;20673;-61
2021/03/19 04:44:36;;;;;;;51.20;32.37;;;;;;;;;;4327134;33;20242;-61
2021/03/19 04:47:01;;;;;;;47.70;31.73;;;;;;;;;;4327839;33;20293;-60
2021/03/19 04:49:27;;;;;;;40.23;28.27;;;;;;;;;;4329786;33;20286;-61
2021/03/19 04:51:52;;;;;;;36.70;27.40;;;;;;;;;;4334726;33;20302;-62
2021/03/19 04:54:18;;;;;;;36.93;27.07;;;;;;;;;;4326984;33;20278;-61
2021/03/19 04:56:44;;;;;;;37.13;25.87;;;;;;;;;;4327767;33;20356;-64
2021/03/19 04:59:09;;;;;;;37.97;25.83;;;;;;;;;;4323332;33;20672;-63
2021/03/19 05:01:57;;;;;;;33.43;23.10;;;;;;;;;;4322109;33;20661;-62
2021/03/19 05:04:24;;;;;;;40.57;25.70;;;;;;;;;;4322370;33;20467;-61
2021/03/19 05:06:52;;;;;;;40.63;25.63;;;;;;;;;;4316936;33;20696;-62
2021/03/19 05:09:19;;;;;;;60.20;38.50;;;;;;;;;;4313069;33;20309;-66
2021/03/19 05:11:45;;;;;;;62.63;38.17;;;;;;;;;;4307491;33;20364;-66
2021/03/19 05:14:10;;;;;;;63.57;38.90;;;;;;;;;;4309988;33;20420;-67
2021/03/19 05:16:36;;;;;;;62.20;40.00;;;;;;;;;;4318806;33;20289;-60
2021/03/19 05:19:02;;;;;;;72.53;43.70;;;;;;;;;;4316269;33;20313;-59
2021/03/19 05:21:28;;;;;;;70.83;45.37;;;;;;;;;;4318984;33;20558;-58
2021/03/19 05:23:54;;;;;;;88.97;52.83;;;;;;;;;;4316965;33;20317;-59
2021/03/19 05:26:20;;;;;;;105.50;59.30;;;;;;;;;;4317310;33;20215;-59
2021/03/19 05:28:45;;;;;;;86.23;49.30;;;;;;;;;;4318031;33;20895;-58
2021/03/19 05:31:11;;;;;;;70.80;46.17;;;;;;;;;;4318116;33;20305;-58
2021/03/19 05:33:46;;;;;;;59.03;39.80;;;;;;;;;;4318720;33;20443;-59
2021/03/19 05:36:13;;;;;;;63.97;38.97;;;;;;;;;;4318869;33;20282;-68
2021/03/19 05:38:39;;;;;;;63.37;39.10;;;;;;;;;;4316194;33;20243;-68
2021/03/19 05:41:05;;;;;;;63.70;39.77;;;;;;;;;;4317235;33;20295;-70
2021/03/19 05:43:35;;;;;;;63.97;39.67;;;;;;;;;;4318474;33;20321;-70
2021/03/19 05:46:16;;;;;;;66.93;40.37;;;;;;;;;;4306304;33;20227;-73
2021/03/19 05:48:51;;;;;;;59.67;40.77;;;;;;;;;;4314247;33;20645;-72
2021/03/19 05:51:28;;;;;;;69.40;40.73;;;;;;;;;;4315918;33;20338;-71
2021/03/19 05:53:58;;;;;;;62.03;40.90;;;;;;;;;;4312529;33;20294;-72
2021/03/19 05:56:29;;;;;;;68.67;42.27;;;;;;;;;;4315949;33;20746;-70
2021/03/19 05:58:54;;;;;;;62.20;45.07;;;;;;;;;;4312309;33;20219;-70
2021/03/19 06:01:20;;;;;;;65.33;42.43;;;;;;;;;;4316741;33;20310;-57
2021/03/19 06:03:46;;;;;;;61.03;42.20;;;;;;;;;;4309037;33;20316;-60
2021/03/19 06:06:14;;;;;;;63.17;42.83;;;;;;;;;;4304787;33;20379;-60
2021/03/19 06:08:44;;;;;;;58.53;40.00;;;;;;;;;;4316022;33;20532;-60
2021/03/19 06:11:14;;;;;;;59.50;38.27;;;;;;;;;;4313803;33;20696;-61
2021/03/19 06:13:48;;;;;;;53.33;36.73;;;;;;;;;;4311734;33;20587;-59
2021/03/19 06:16:28;;;;;;;70.77;45.57;;;;;;;;;;4313597;33;20530;-61
2021/03/19 06:18:56;;;;;;;93.70;58.20;;;;;;;;;;4310948;33;20269;-60
2021/03/19 06:21:34;;;;;;;70.43;47.87;;;;;;;;;;4310123;33;20215;-58
2021/03/19 06:24:14;;;;;;;65.23;44.63;;;;;;;;;;4312488;33;20221;-60
2021/03/19 06:26:42;;;;;;;60.80;36.63;;;;;;;;;;4303102;33;20297;-59
2021/03/19 06:29:23;;;;;;;56.37;37.03;;;;;;;;;;4313709;33;20532;-59
2021/03/19 06:32:13;;;;;;;58.83;40.43;;;;;;;;;;4312318;33;20257;-58
2021/03/19 06:35:03;;;;;;;59.33;41.80;;;;;;;;;;4312750;33;20301;-59
2021/03/19 06:37:41;;;;;;;45.63;31.80;;;;;;;;;;4312496;33;20284;-59
2021/03/19 06:40:30;;;;;;;36.33;27.47;;;;;;;;;;4311644;33;20305;-59
2021/03/19 06:43:16;;;;;;;39.20;25.67;;;;;;;;;;4307130;33;20236;-62
2021/03/19 06:45:43;;;;;;;46.07;29.97;;;;;;;;;;4310626;33;20220;-62
2021/03/19 06:48:31;;;;;;;44.30;27.50;;;;;;;;;;4287033;33;20936;-62
2021/03/19 06:50:56;;;;;;;46.93;33.00;;;;;;;;;;4305188;33;20223;-61
2021/03/19 06:53:26;;;;;;;34.77;21.77;;;;;;;;;;4312302;33;20675;-61
2021/03/19 06:56:11;;;;;;;21.20;16.30;;;;;;;;;;4311903;33;20377;-62
2021/03/19 06:58:40;;;;;;;36.10;21.73;;;;;;;;;;4313146;33;20222;-59
2021/03/19 07:01:13;;;;;;;27.27;18.30;;;;;;;;;;4310635;33;20203;-58
2021/03/19 07:04:08;;;;;;;21.67;15.47;;;;;;;;;;4313473;33;20242;-60
2021/03/19 07:06:47;;;;;;;30.43;17.63;;;;;;;;;;4312753;33;20291;-59
2021/03/19 07:09:33;;;;;;;23.90;15.60;;;;;;;;;;4313695;33;20279;-60
2021/03/19 07:12:32;;;;;;;20.60;14.10;;;;;;;;;;4312320;33;20346;-59
2021/03/19 07:15:40;;;;;;;15.70;12.00;;;;;;;;;;4313525;33;20693;-60
2021/03/19 07:18:41;;;;;;;19.23;10.70;;;;;;;;;;4267390;33;20232;-67
2021/03/19 07:21:33;;;;;;;16.33;12.07;;;;;;;;;;4266421;33;20796;-63
2021/03/19 07:24:25;;;;;;;18.30;13.67;;;;;;;;;;4294709;33;20303;-63
2021/03/19 07:26:53;;;;;;;18.80;14.67;;;;;;;;;;4307377;33;20311;-64
2021/03/19 07:29:37;;;;;;;23.47;16.50;;;;;;;;;;4313638;33;20219;-63
2021/03/19 07:32:38;;;;;;;19.30;13.67;;;;;;;;;;4313011;33;20302;-65
2021/03/19 07:35:09;;;;;;;15.53;12.07;;;;;;;;;;4296186;33;20228;-67
2021/03/19 07:38:05;;;;;;;16.90;12.67;;;;;;;;;;4309444;33;20236;-69
2021/03/19 07:40:45;;;;;;;19.13;12.53;;;;;;;;;;4308166;33;20262;-64
2021/03/19 07:43:23;;;;;;;17.77;12.93;;;;;;;;;;4312672;33;20227;-65
2021/03/19 07:46:28;;;;;;;19.27;12.93;;;;;;;;;;4306387;33;20238;-67
2021/03/19 07:49:12;;;;;;;21.03;14.67;;;;;;;;;;4318377;33;20325;-63
2021/03/19 07:52:10;;;;;;;26.57;16.77;;;;;;;;;;4310039;33;20227;-67
2021/03/19 07:55:04;;;;;;;31.30;17.63;;;;;;;;;;4306896;33;20235;-67
2021/03/19 07:57:41;;;;;;;25.07;17.60;;;;;;;;;;4320553;33;20305;-65
2021/03/19 08:00:22;;;;;;;34.00;23.73;;;;;;;;;;4309315;33;20224;-65
2021/03/19 08:03:24;;;;;;;31.70;22.27;;;;;;;;;;4305493;33;20633;-63
2021/03/19 08:05:54;;;;;;;25.30;20.97;;;;;;;;;;4321161;33;20277;-65
2021/03/19 08:08:57;;;;;;;32.60;21.87;;;;;;;;;;4320549;33;20698;-64
2021/03/19 08:11:52;;;;;;;32.40;22.43;;;;;;;;;;4321209;33;20302;-64
2021/03/19 08:14:30;;;;;;;41.00;22.90;;;;;;;;;;4313360;33;20338;-64
2021/03/19 08:17:07;;;;;;;23.50;17.87;;;;;;;;;;4321161;33;20322;-64
2021/03/19 08:19:39;;;;;;;30.77;23.57;;;;;;;;;;4320611;33;20202;-64
2021/03/19 08:22:53;;;;;;;40.23;23.33;;;;;;;;;;4320486;33;20250;-64
2021/03/19 08:25:24;;;;;;;27.20;22.10;;;;;;;;;;4297268;33;20295;-64
2021/03/19 08:27:59;;;;;;;26.57;19.23;;;;;;;;;;4318432;33;20245;-65
2021/03/19 08:30:42;;;;;;;30.57;20.80;;;;;;;;;;4313755;33;20226;-64
2021/03/19 08:33:11;;;;;;;29.43;21.23;;;;;;;;;;4322963;33;20227;-65
2021/03/19 08:36:32;;;;;;;25.93;18.77;;;;;;;;;;4311118;33;20234;-65
2021/03/19 08:39:06;;;;;;;24.00;17.87;;;;;;;;;;4289493;33;20235;-65
2021/03/19 08:41:39;;;;;;;29.00;18.97;;;;;;;;;;4326489;33;20306;-64
2021/03/19 08:44:10;;;;;;;25.00;16.67;;;;;;;;;;4323637;33;20238;-63
2021/03/19 08:46:51;;;;;;;22.00;16.00;;;;;;;;;;4330767;33;20314;-61
2021/03/19 08:49:26;;;;;;;34.33;21.70;;;;;;;;;;4315620;33;20621;-60
2021/03/19 08:51:55;;;;;;;21.77;15.80;;;;;;;;;;4314922;33;20235;-62
2021/03/19 08:54:30;;;;;;;23.97;16.83;;;;;;;;;;4324998;33;20290;-63
2021/03/19 08:57:08;;;;;;;20.80;16.63;;;;;;;;;;4314454;33;20231;-62
2021/03/19 08:59:34;;;;;;;24.57;17.90;;;;;;;;;;4313975;33;20645;-61
2021/03/19 09:02:18;;;;;;;25.03;17.13;;;;;;;;;;4332939;33;20341;-62
2021/03/19 09:04:50;;;;;;;23.17;16.40;;;;;;;;;;4321120;33;20704;-62
2021/03/19 09:07:26;;;;;;;20.77;15.10;;;;;;;;;;4331532;33;20242;-62
2021/03/19 09:09:58;;;;;;;17.40;13.97;;;;;;;;;;4342414;33;20294;-62
2021/03/19 09:12:27;;;;;;;25.40;16.83;;;;;;;;;;4324334;33;20304;-61
2021/03/19 09:15:15;;;;;;;17.63;13.33;;;;;;;;;;4321263;33;20390;-61
2021/03/19 09:17:44;;;;;;;15.17;13.17;;;;;;;;;;4328633;33;20290;-60
2021/03/19 09:20:28;;;;;;;17.33;13.83;;;;;;;;;;4328863;33;20569;-59
2021/03/19 09:23:16;;;;;;;23.53;14.77;;;;;;;;;;4329721;33;20683;-60
2021/03/19 09:25:45;;;;;;;22.03;15.13;;;;;;;;;;4327006;33;20231;-60
2021/03/19 09:28:30;;;;;;;17.17;13.73;;;;;;;;;;4317781;33;20226;-59
2021/03/19 09:31:01;;;;;;;16.73;13.37;;;;;;;;;;4329362;33;20207;-60
2021/03/19 09:33:45;;;;;;;18.53;13.37;;;;;;;;;;4338919;33;20242;-60
2021/03/19 09:36:47;;;;;;;21.80;12.67;;;;;;;;;;4334007;33;20546;-59
2021/03/19 09:39:44;;;;;;;16.90;12.27;;;;;;;;;;4333497;33;20358;-59
2021/03/19 09:42:18;;;;;;;16.67;12.87;;;;;;;;;;4337461;33;20371;-60
2021/03/19 09:44:50;;;;;;;17.80;14.23;;;;;;;;;;4335113;33;20307;-59
2021/03/19 09:47:17;;;;;;;19.07;14.03;;;;;;;;;;4330022;33;20220;-60
2021/03/19 09:49:43;;;;;;;16.73;12.00;;;;;;;;;;4320522;33;20316;-60
2021/03/19 09:52:17;;;;;;;11.80;10.37;;;;;;;;;;4330050;33;20223;-60
2021/03/19 09:54:44;;;;;;;13.07;11.00;;;;;;;;;;4321700;33;20357;-58
2021/03/19 09:57:22;;;;;;;15.73;10.33;;;;;;;;;;4328382;33;20326;-59
2021/03/19 09:59:56;;;;;;;12.30;10.73;;;;;;;;;;4325321;33;20294;-59
2021/03/19 10:02:34;;;;;;;20.53;13.27;;;;;;;;;;4334423;33;20250;-58
2021/03/19 10:05:33;;;;;;;18.43;13.20;;;;;;;;;;4318724;33;20551;-60
2021/03/19 10:08:00;;;;;;;23.43;12.43;;;;;;;;;;4304741;33;20228;-61
2021/03/19 10:10:42;;;;;;;14.30;11.47;;;;;;;;;;4317910;33;20568;-60
2021/03/19 10:13:19;;;;;;;13.43;10.53;;;;;;;;;;4317299;33;20608;-59
2021/03/19 10:15:51;;;;;;;13.00;10.40;;;;;;;;;;4315917;33;20218;-59
2021/03/19 10:18:31;;;;;;;13.60;10.37;;;;;;;;;;4313694;33;20218;-60
2021/03/19 10:21:08;;;;;;;15.60;10.40;;;;;;;;;;4315134;33;20578;-60
2021/03/19 10:23:41;;;;;;;15.00;10.67;;;;;;;;;;4315973;33;20278;-59
2021/03/19 10:26:06;;;;;;;12.90;10.40;;;;;;;;;;4320470;33;20211;-59
2021/03/19 10:28:32;;;;;;;13.03;10.60;;;;;;;;;;4321945;33;20353;-59
2021/03/19 10:30:58;;;;;;;11.83;10.10;;;;;;;;;;4301888;33;20586;-60
2021/03/19 10:33:37;;;;;;;18.20;14.20;;;;;;;;;;4314172;33;20294;-59
2021/03/19 10:36:13;;;;;;;12.47;9.90;;;;;;;;;;4319056;33;20282;-58
2021/03/19 10:39:05;;;;;;;12.70;8.17;;;;;;;;;;4322722;33;20353;-59
2021/03/19 10:41:42;;;;;;;10.57;7.87;;;;;;;;;;4315015;33;20557;-59
2021/03/19 10:44:20;;;;;;;16.33;8.73;;;;;;;;;;4320607;33;20226;-59
2021/03/19 10:46:49;;;;;;;18.20;9.63;;;;;;;;;;4315312;33;20227;-60
2021/03/19 10:49:45;;;;;;;8.63;7.73;;;;;;;;;;4314560;33;20277;-58
2021/03/19 10:52:38;;;;;;;11.57;8.10;;;;;;;;;;4323942;33;20303;-58
2021/03/19 10:55:11;;;;;;;13.37;9.53;;;;;;;;;;4316257;33;20436;-59
2021/03/19 10:57:40;;;;;;;11.40;8.17;;;;;;;;;;4317608;33;20716;-59
2021/03/19 11:00:40;;;;;;;30.07;22.23;;;;;;;;;;4303619;33;20254;-59
2021/03/19 11:03:07;;;;;;;12.20;9.03;;;;;;;;;;4322157;33;20216;-60
2021/03/19 11:05:59;;;;;;;10.90;8.10;;;;;;;;;;4329045;33;20306;-59
2021/03/19 11:08:25;;;;;;;17.33;10.37;;;;;;;;;;4329443;33;20302;-60
2021/03/19 11:10:52;;;;;;;23.07;18.00;;;;;;;;;;4327295;33;20309;-59
2021/03/19 11:13:25;;;;;;;52.93;26.83;;;;;;;;;;4325689;33;20223;-59
2021/03/19 11:15:54;;;;;;;45.73;29.87;;;;;;;;;;4327934;33;20266;-59
2021/03/19 11:18:23;;;;;;;16.50;12.37;;;;;;;;;;4328526;33;20218;-58
2021/03/19 11:21:07;;;;;;;11.53;8.03;;;;;;;;;;4330380;33;20535;-59
2021/03/19 11:23:40;;;;;;;10.90;9.17;;;;;;;;;;4337941;33;20211;-59
2021/03/19 11:26:27;;;;;;;9.00;7.27;;;;;;;;;;4320438;33;20223;-60
2021/03/19 11:29:18;;;;;;;18.20;9.83;;;;;;;;;;4313879;33;20305;-60
2021/03/19 11:32:01;;;;;;;16.70;11.63;;;;;;;;;;4335633;33;20718;-62
2021/03/19 11:34:35;;;;;;;12.77;11.40;;;;;;;;;;4321486;33;20585;-61
2021/03/19 11:37:12;;;;;;;15.17;9.70;;;;;;;;;;4334437;33;20596;-62
2021/03/19 11:39:52;;;;;;;8.17;7.37;;;;;;;;;;4322398;33;20307;-61
2021/03/19 11:42:23;;;;;;;15.57;9.77;;;;;;;;;;4339242;33;20214;-61
2021/03/19 11:44:55;;;;;;;19.57;12.40;;;;;;;;;;4319173;33;20212;-61
2021/03/19 11:47:32;;;;;;;12.87;9.33;;;;;;;;;;4330304;33;20337;-61
2021/03/19 11:50:22;;;;;;;15.63;9.30;;;;;;;;;;4332392;33;20233;-60
2021/03/19 11:53:05;;;;;;;9.27;7.70;;;;;;;;;;4309167;33;20247;-60
2021/03/19 11:55:34;;;;;;;12.43;10.00;;;;;;;;;;4330160;33;20200;-59
2021/03/19 11:57:59;;;;;;;10.00;7.27;;;;;;;;;;4322009;33;20250;-60
2021/03/19 12:00:28;;;;;;;9.60;7.70;;;;;;;;;;4322005;33;20281;-60
2021/03/19 12:03:01;;;;;;;10.80;8.30;;;;;;;;;;4316204;33;20262;-59
2021/03/19 12:05:28;;;;;;;81.63;45.37;;;;;;;;;;4327747;33;20353;-60
2021/03/19 12:07:54;;;;;;;11.63;9.30;;;;;;;;;;4331253;33;20348;-61
2021/03/19 12:10:22;;;;;;;11.13;8.17;;;;;;;;;;4328753;33;20206;-60
2021/03/19 12:12:48;;;;;;;109.33;57.93;;;;;;;;;;4335130;33;20259;-60
2021/03/19 12:15:17;;;;;;;20.40;15.37;;;;;;;;;;4331917;33;20321;-60
2021/03/19 12:17:44;;;;;;;19.27;11.03;;;;;;;;;;4331547;33;20317;-59
2021/03/19 12:20:11;;;;;;;14.83;9.73;;;;;;;;;;4305938;33;20580;-60
2021/03/19 12:22:36;;;;;;;127.93;48.73;;;;;;;;;;4330862;33;20246;-61
2021/03/19 12:25:03;;;;;;;24.33;13.40;;;;;;;;;;4327890;33;20207;-60
2021/03/19 12:27:29;;;;;;;86.13;36.43;;;;;;;;;;4321912;33;20365;-60
2021/03/19 12:29:54;;;;;;;47.67;23.33;;;;;;;;;;4333345;33;20199;-60
2021/03/19 12:32:20;;;;;;;105.57;40.07;;;;;;;;;;4321086;33;20260;-60
2021/03/19 12:34:46;;;;;;;31.83;18.50;;;;;;;;;;4330281;33;20317;-60
2021/03/19 12:37:12;;;;;;;11.87;8.70;;;;;;;;;;4335983;33;20241;-60
2021/03/19 12:39:38;;;;;;;12.60;8.23;;;;;;;;;;4334261;33;20285;-60
2021/03/19 12:42:04;;;;;;;32.67;15.53;;;;;;;;;;4336620;33;20312;-62
2021/03/19 12:44:30;;;;;;;37.00;16.73;;;;;;;;;;4330551;33;20337;-60
2021/03/19 12:46:58;;;;;;;42.47;18.63;;;;;;;;;;4323550;33;20690;-62
2021/03/19 12:49:24;;;;;;;47.90;21.13;;;;;;;;;;4316656;33;20343;-60
2021/03/19 12:51:50;;;;;;;73.57;30.20;;;;;;;;;;4334490;33;20277;-61
2021/03/19 12:54:17;;;;;;;31.83;13.13;;;;;;;;;;4334896;33;20731;-61
2021/03/19 12:56:42;;;;;;;145.77;57.80;;;;;;;;;;4329833;33;20533;-60
2021/03/19 12:59:08;;;;;;;154.80;63.27;;;;;;;;;;4329473;33;20357;-60
2021/03/19 13:01:33;;;;;;;195.57;76.23;;;;;;;;;;4318923;33;20335;-62
2021/03/19 13:04:00;;;;;;;20.90;12.20;;;;;;;;;;4335401;33;20278;-61
2021/03/19 13:06:27;;;;;;;22.93;15.40;;;;;;;;;;4334199;33;20517;-61
2021/03/19 13:08:53;;;;;;;16.20;10.47;;;;;;;;;;4328534;33;20344;-61
2021/03/19 13:11:19;;;;;;;12.63;8.90;;;;;;;;;;4332212;33;20235;-61
2021/03/19 13:13:47;;;;;;;10.93;8.63;;;;;;;;;;4315925;33;20592;-61
2021/03/19 13:16:14;;;;;;;7.90;6.97;;;;;;;;;;4310674;33;20305;-60
2021/03/19 13:18:39;;;;;;;26.60;9.53;;;;;;;;;;4332998;33;20241;-61
2021/03/19 13:21:06;;;;;;;8.70;6.97;;;;;;;;;;4321529;33;20231;-61
2021/03/19 13:23:33;;;;;;;11.83;9.37;;;;;;;;;;4329414;33;20680;-60
2021/03/19 13:25:59;;;;;;;11.13;7.73;;;;;;;;;;4315232;33;20609;-61
2021/03/19 13:28:24;;;;;;;14.73;7.30;;;;;;;;;;4327077;33;20314;-62
2021/03/19 13:30:51;;;;;;;17.27;7.00;;;;;;;;;;4323023;33;20215;-62
2021/03/19 13:33:19;;;;;;;8.40;6.03;;;;;;;;;;4322858;33;20656;-59
2021/03/19 13:35:50;;;;;;;11.83;7.80;;;;;;;;;;4318496;33;20223;-61
2021/03/19 13:38:16;;;;;;;11.20;7.70;;;;;;;;;;4319153;33;20250;-62
2021/03/19 13:40:46;;;;;;;13.13;7.10;;;;;;;;;;4330851;33;20578;-61
2021/03/19 13:43:14;;;;;;;11.30;7.47;;;;;;;;;;4324077;33;20322;-60
2021/03/19 13:45:39;;;;;;;14.00;10.67;;;;;;;;;;4335323;33;20210;-63
2021/03/19 13:48:06;;;;;;;8.93;5.90;;;;;;;;;;4335888;33;20257;-61
2021/03/19 13:50:32;;;;;;;14.43;9.03;;;;;;;;;;4332984;33;20353;-61
2021/03/19 13:52:58;;;;;;;14.90;8.83;;;;;;;;;;4327856;33;20235;-61
2021/03/19 13:55:26;;;;;;;16.03;9.73;;;;;;;;;;4329540;33;20643;-62
2021/03/19 13:57:59;;;;;;;19.17;11.40;;;;;;;;;;4327818;33;20381;-64
2021/03/19 14:00:43;;;;;;;11.37;8.87;;;;;;;;;;4325595;33;20707;-64
2021/03/19 14:03:09;;;;;;;14.50;8.07;;;;;;;;;;4330654;33;20670;-63
2021/03/19 14:05:36;;;;;;;15.80;6.83;;;;;;;;;;4330438;33;20287;-64
2021/03/19 14:08:05;;;;;;;10.37;7.07;;;;;;;;;;4320548;33;20683;-65
2021/03/19 14:10:31;;;;;;;11.60;8.23;;;;;;;;;;4331792;33;20675;-60
2021/03/19 14:12:56;;;;;;;16.50;9.63;;;;;;;;;;4332137;33;20231;-61
2021/03/19 14:15:24;;;;;;;23.07;13.20;;;;;;;;;;4326155;33;20218;-62
2021/03/19 14:17:51;;;;;;;17.83;12.50;;;;;;;;;;4330427;33;20282;-62
2021/03/19 14:20:30;;;;;;;20.17;14.63;;;;;;;;;;4321384;33;20253;-62
2021/03/19 14:22:57;;;;;;;18.80;14.50;;;;;;;;;;4329456;33;20253;-62
2021/03/19 14:25:23;;;;;;;22.67;14.93;;;;;;;;;;4312751;33;20219;-64
2021/03/19 14:27:50;;;;;;;27.57;17.50;;;;;;;;;;4334063;33;20292;-62
2021/03/19 14:30:18;;;;;;;27.53;18.80;;;;;;;;;;4331056;33;20200;-63
2021/03/19 14:32:43;;;;;;;20.17;15.47;;;;;;;;;;4317752;33;20652;-63
2021/03/19 14:35:11;;;;;;;23.13;16.93;;;;;;;;;;4333473;33;20265;-62
2021/03/19 14:37:37;;;;;;;23.03;16.77;;;;;;;;;;4324000;33;20230;-62
2021/03/19 14:40:08;;;;;;;26.77;18.43;;;;;;;;;;4323966;33;20313;-63
2021/03/19 14:42:35;;;;;;;22.87;18.83;;;;;;;;;;4328470;33;20369;-63
2021/03/19 14:45:01;;;;;;;27.53;19.10;;;;;;;;;;4333160;33;20247;-62
2021/03/19 14:47:26;;;;;;;21.63;17.87;;;;;;;;;;4330242;33;20253;-63
2021/03/19 14:49:51;;;;;;;35.63;22.60;;;;;;;;;;4334193;33;20334;-63
2021/03/19 14:52:17;;;;;;;52.37;28.70;;;;;;;;;;4333568;33;20259;-64
2021/03/19 14:54:43;;;;;;;57.47;34.50;;;;;;;;;;4331738;33;20337;-65